createdAt,value
2018-08-20T00:01:08.701Z,94956.00
2018-08-20T00:03:44.039Z,94957.00
2018-08-20T00:06:15.061Z,94961.00
2018-08-20T00:08:46.072Z,94963.00
2018-08-20T00:11:17.121Z,94964.00
2018-08-20T00:13:48.051Z,94965.00
2018-08-20T00:16:19.189Z,94966.00
2018-08-20T00:18:50.106Z,94961.00
2018-08-20T00:21:21.074Z,94960.00
2018-08-20T00:23:52.112Z,94954.00
2018-08-20T00:26:23.191Z,94954.00
2018-08-20T00:28:54.394Z,94954.00
2018-08-20T00:31:25.292Z,94949.00
2018-08-20T00:33:56.126Z,94951.00
2018-08-20T00:36:27.344Z,94959.00
2018-08-20T00:38:58.145Z,94954.00
2018-08-20T00:41:29.061Z,94953.00
2018-08-20T00:44:00.050Z,94949.00
2018-08-20T00:46:31.178Z,94953.00
2018-08-20T00:49:02.565Z,94952.00
2018-08-20T00:51:33.700Z,94952.00
2018-08-20T00:54:04.641Z,94950.00
2018-08-20T00:56:35.424Z,94948.00
2018-08-20T00:59:06.434Z,94951.00
2018-08-20T01:01:37.280Z,94947.00
2018-08-20T01:04:08.146Z,94940.00
2018-08-20T01:06:39.028Z,94945.00
2018-08-20T01:09:10.364Z,94944.00
2018-08-20T01:11:41.146Z,94944.00
2018-08-20T01:14:12.179Z,94941.00
2018-08-20T01:16:43.078Z,94938.00
2018-08-20T01:19:13.844Z,94938.00
2018-08-20T01:21:44.863Z,94937.00
2018-08-20T01:24:15.681Z,94943.00
2018-08-20T01:26:46.485Z,94935.00
2018-08-20T01:29:17.345Z,94937.00
2018-08-20T01:31:48.248Z,94934.00
2018-08-20T01:34:18.986Z,94938.00
2018-08-20T01:36:50.135Z,94939.00
2018-08-20T01:39:21.294Z,94936.00
2018-08-20T01:41:52.318Z,94935.00
2018-08-20T01:44:23.286Z,94946.00
2018-08-20T01:46:54.099Z,94941.00
2018-08-20T01:49:24.968Z,94936.00
2018-08-20T01:51:55.788Z,94938.00
2018-08-20T01:54:26.665Z,94945.00
2018-08-20T01:56:57.614Z,94943.00
2018-08-20T01:59:28.830Z,94945.00
2018-08-20T02:02:00.671Z,94945.00
2018-08-20T02:04:31.569Z,94940.00
2018-08-20T02:07:02.489Z,94939.00
2018-08-20T02:09:33.838Z,94940.00
2018-08-20T02:12:05.110Z,94942.00
2018-08-20T02:14:35.938Z,94938.00
2018-08-20T02:17:07.887Z,94939.00
2018-08-20T02:19:38.767Z,94939.00
2018-08-20T02:22:09.644Z,94932.00
2018-08-20T02:24:40.591Z,94935.00
2018-08-20T02:27:11.434Z,94933.00
2018-08-20T02:29:42.255Z,94941.00
2018-08-20T02:32:13.125Z,94943.00
2018-08-20T02:34:44.230Z,94946.00
2018-08-20T02:37:15.104Z,94945.00
2018-08-20T02:39:45.899Z,94947.00
2018-08-20T02:42:16.722Z,94945.00
2018-08-20T02:44:47.550Z,94943.00
2018-08-20T02:47:18.564Z,94945.00
2018-08-20T02:49:49.286Z,94948.00
2018-08-20T02:52:20.072Z,94943.00
2018-08-20T02:54:50.946Z,94948.00
2018-08-20T02:57:21.879Z,94951.00
2018-08-20T02:59:52.681Z,94950.00
2018-08-20T03:02:23.547Z,94948.00
2018-08-20T03:04:54.246Z,94949.00
2018-08-20T03:07:25.319Z,94952.00
2018-08-20T03:09:56.188Z,94958.00
2018-08-20T03:12:26.912Z,94958.00
2018-08-20T03:14:57.576Z,94955.00
2018-08-20T03:17:28.384Z,94959.00
2018-08-20T03:19:59.178Z,94949.00
2018-08-20T03:22:30.055Z,94949.00
2018-08-20T03:25:00.989Z,94949.00
2018-08-20T03:27:31.791Z,94951.00
2018-08-20T03:30:02.831Z,94958.00
2018-08-20T03:32:33.757Z,94946.00
2018-08-20T03:35:05.216Z,94957.00
2018-08-20T03:37:36.154Z,94955.00
2018-08-20T03:40:09.619Z,94957.00
2018-08-20T03:42:40.641Z,94958.00
2018-08-20T03:45:11.812Z,94956.00
2018-08-20T03:47:42.664Z,94957.00
2018-08-20T03:50:15.848Z,94960.00
2018-08-20T03:52:46.694Z,94965.00
2018-08-20T03:55:17.695Z,94967.00
2018-08-20T03:57:48.447Z,94967.00
2018-08-20T04:00:23.460Z,94971.00
2018-08-20T04:02:54.891Z,94973.00
2018-08-20T04:05:25.834Z,94969.00
2018-08-20T04:07:56.841Z,94965.00
2018-08-20T04:10:27.717Z,94962.00
2018-08-20T04:12:58.829Z,94967.00
2018-08-20T04:15:29.855Z,94960.00
2018-08-20T04:18:00.938Z,94959.00
2018-08-20T04:20:32.046Z,94960.00
2018-08-20T04:23:02.977Z,94964.00
2018-08-20T04:25:34.094Z,94968.00
2018-08-20T04:28:05.144Z,94959.00
2018-08-20T04:30:36.269Z,94967.00
2018-08-20T04:33:08.333Z,94969.00
2018-08-20T04:35:39.220Z,94960.00
2018-08-20T04:38:10.311Z,94962.00
2018-08-20T04:40:41.254Z,94963.00
2018-08-20T04:43:12.315Z,94962.00
2018-08-20T04:45:43.523Z,94973.00
2018-08-20T04:48:14.388Z,94966.00
2018-08-20T04:50:45.545Z,94965.00
2018-08-20T04:53:16.375Z,94962.00
2018-08-20T04:55:47.388Z,94962.00
2018-08-20T04:58:18.480Z,94962.00
2018-08-20T05:00:49.725Z,94971.00
2018-08-20T05:03:20.758Z,94960.00
2018-08-20T05:05:51.723Z,94965.00
2018-08-20T05:08:22.686Z,94967.00
2018-08-20T05:10:53.591Z,94975.00
2018-08-20T05:13:24.616Z,94975.00
2018-08-20T05:15:55.675Z,94968.00
2018-08-20T05:18:26.792Z,94974.00
2018-08-20T05:20:57.752Z,94969.00
2018-08-20T05:23:28.860Z,94971.00
2018-08-20T05:25:59.756Z,94968.00
2018-08-20T05:28:30.611Z,94968.00
2018-08-20T05:31:01.407Z,94970.00
2018-08-20T05:33:32.200Z,94976.00
2018-08-20T05:36:03.231Z,94975.00
2018-08-20T05:38:34.046Z,94975.00
2018-08-20T05:41:04.898Z,94979.00
2018-08-20T05:43:35.740Z,94977.00
2018-08-20T05:46:06.921Z,94975.00
2018-08-20T05:48:37.921Z,94974.00
2018-08-20T05:51:09.125Z,94977.00
2018-08-20T05:53:39.963Z,94974.00
2018-08-20T05:56:10.871Z,94975.00
2018-08-20T05:58:41.737Z,94976.00
2018-08-20T06:01:13.603Z,94973.00
2018-08-20T06:03:44.851Z,94976.00
2018-08-20T06:06:15.883Z,94980.00
2018-08-20T06:08:47.032Z,94978.00
2018-08-20T06:11:18.251Z,94979.00
2018-08-20T06:13:49.210Z,94980.00
2018-08-20T06:16:20.043Z,94975.00
2018-08-20T06:18:51.083Z,94974.00
2018-08-20T06:21:22.192Z,94977.00
2018-08-20T06:23:53.156Z,94985.00
2018-08-20T06:26:24.210Z,94982.00
2018-08-20T06:28:55.401Z,94981.00
2018-08-20T06:31:26.322Z,94980.00
2018-08-20T06:33:57.257Z,94982.00
2018-08-20T06:36:28.387Z,94983.00
2018-08-20T06:38:59.426Z,94979.00
2018-08-20T06:41:30.408Z,94979.00
2018-08-20T06:44:01.395Z,94977.00
2018-08-20T06:46:32.328Z,94981.00
2018-08-20T06:49:03.424Z,94979.00
2018-08-20T06:51:34.586Z,94969.00
2018-08-20T06:54:05.892Z,94974.00
2018-08-20T06:56:36.958Z,94974.00
2018-08-20T06:59:08.078Z,94978.00
2018-08-20T07:01:39.133Z,94972.00
2018-08-20T07:04:10.178Z,94974.00
2018-08-20T07:06:41.160Z,94971.00
2018-08-20T07:09:12.044Z,94974.00
2018-08-20T07:11:43.138Z,94978.00
2018-08-20T07:14:13.982Z,94974.00
2018-08-20T07:16:45.053Z,94969.00
2018-08-20T07:19:16.219Z,94964.00
2018-08-20T07:21:47.245Z,94963.00
2018-08-20T07:24:18.169Z,94962.00
2018-08-20T07:26:49.166Z,94964.00
2018-08-20T07:29:33.019Z,94967.00
2018-08-20T07:32:03.949Z,94969.00
2018-08-20T07:34:35.929Z,94966.00
2018-08-20T07:37:09.120Z,94962.00
2018-08-20T07:39:41.191Z,94962.00
2018-08-20T07:42:12.555Z,94959.00
2018-08-20T07:44:44.297Z,94960.00
2018-08-20T07:47:15.185Z,94962.00
2018-08-20T07:49:46.198Z,94960.00
2018-08-20T07:52:17.238Z,94963.00
2018-08-20T07:54:48.215Z,94962.00
2018-08-20T07:57:19.163Z,94957.00
2018-08-20T07:59:50.124Z,94956.00
2018-08-20T08:02:21.206Z,94955.00
2018-08-20T08:04:52.148Z,94956.00
2018-08-20T08:07:23.119Z,94955.00
2018-08-20T08:09:54.140Z,94954.00
2018-08-20T08:12:25.161Z,94955.00
2018-08-20T08:14:56.221Z,94954.00
2018-08-20T08:17:27.205Z,94954.00
2018-08-20T08:19:58.166Z,94953.00
2018-08-20T08:22:29.197Z,94951.00
2018-08-20T08:25:00.211Z,94951.00
2018-08-20T08:27:31.490Z,94945.00
2018-08-20T08:30:02.675Z,94951.00
2018-08-20T08:32:33.661Z,94948.00
2018-08-20T08:35:05.043Z,94944.00
2018-08-20T08:37:36.118Z,94945.00
2018-08-20T08:40:07.118Z,94945.00
2018-08-20T08:42:38.180Z,94945.00
2018-08-20T08:45:18.391Z,94942.00
2018-08-20T08:47:52.870Z,94942.00
2018-08-20T08:50:24.235Z,94934.00
2018-08-20T08:52:55.362Z,94932.00
2018-08-20T08:55:26.467Z,94929.00
2018-08-20T08:57:57.777Z,94928.00
2018-08-20T09:00:29.962Z,94924.00
2018-08-20T09:03:02.654Z,94922.00
2018-08-20T09:05:34.778Z,94917.00
2018-08-20T09:08:06.923Z,94909.00
2018-08-20T09:10:38.306Z,94907.00
2018-08-20T09:13:09.525Z,94905.00
2018-08-20T09:15:40.973Z,94896.00
2018-08-20T09:18:12.555Z,94894.00
2018-08-20T09:20:43.583Z,94879.00
2018-08-20T09:23:14.935Z,94888.00
2018-08-20T09:25:46.277Z,94881.00
2018-08-20T09:28:17.456Z,94883.00
2018-08-20T09:30:48.457Z,94890.00
2018-08-20T09:33:19.356Z,94887.00
2018-08-20T09:35:50.326Z,94874.00
2018-08-20T09:38:21.350Z,94870.00
2018-08-20T09:40:52.507Z,94875.00
2018-08-20T09:43:23.429Z,94872.00
2018-08-20T09:45:54.483Z,94874.00
2018-08-20T09:48:25.579Z,94871.00
2018-08-20T09:50:56.591Z,94873.00
2018-08-20T09:53:28.149Z,94869.00
2018-08-20T09:55:59.266Z,94868.00
2018-08-20T09:58:30.482Z,94868.00
2018-08-20T10:01:01.937Z,94868.00
2018-08-20T10:03:33.359Z,94858.00
2018-08-20T10:06:08.071Z,94861.00
2018-08-20T10:08:39.273Z,94851.00
2018-08-20T10:11:11.142Z,94854.00
2018-08-20T10:13:42.344Z,94853.00
2018-08-20T10:16:13.364Z,94847.00
2018-08-20T10:18:44.359Z,94845.00
2018-08-20T10:21:15.193Z,94843.00
2018-08-20T10:23:46.131Z,94845.00
2018-08-20T10:26:17.120Z,94842.00
2018-08-20T10:28:48.272Z,94843.00
2018-08-20T10:31:19.170Z,94838.00
2018-08-20T10:33:50.668Z,94847.00
2018-08-20T10:36:21.659Z,94838.00
2018-08-20T10:38:52.893Z,94843.00
2018-08-20T10:41:24.689Z,94836.00
2018-08-20T10:43:56.035Z,94838.00
2018-08-20T10:46:27.875Z,94837.00
2018-08-20T10:48:59.140Z,94834.00
2018-08-20T10:51:30.123Z,94836.00
2018-08-20T10:54:01.139Z,94843.00
2018-08-20T10:56:33.993Z,94842.00
2018-08-20T10:59:05.240Z,94840.00
2018-08-20T11:01:36.178Z,94837.00
2018-08-20T11:04:07.272Z,94835.00
2018-08-20T11:06:38.396Z,94838.00
2018-08-20T11:09:10.180Z,94838.00
2018-08-20T11:11:41.447Z,94842.00
2018-08-20T11:14:12.446Z,94839.00
2018-08-20T11:16:43.595Z,94838.00
2018-08-20T11:19:14.730Z,94831.00
2018-08-20T11:21:45.973Z,94836.00
2018-08-20T11:24:17.097Z,94831.00
2018-08-20T11:26:49.031Z,94839.00
2018-08-20T11:29:20.421Z,94841.00
2018-08-20T11:31:51.383Z,94838.00
2018-08-20T11:34:22.541Z,94848.00
2018-08-20T11:36:53.500Z,94844.00
2018-08-20T11:39:24.599Z,94844.00
2018-08-20T11:41:55.502Z,94840.00
2018-08-20T11:44:26.461Z,94840.00
2018-08-20T11:46:57.553Z,94836.00
2018-08-20T11:49:28.559Z,94826.00
2018-08-20T11:51:59.986Z,94826.00
2018-08-20T11:54:30.924Z,94842.00
2018-08-20T11:57:02.038Z,94839.00
2018-08-20T11:59:33.197Z,94855.00
2018-08-20T12:02:04.323Z,94887.00
2018-08-20T12:04:35.319Z,94879.00
2018-08-20T12:07:06.617Z,94874.00
2018-08-20T12:09:37.532Z,94883.00
2018-08-20T12:12:08.822Z,94881.00
2018-08-20T12:14:39.952Z,94883.00
2018-08-20T12:17:10.998Z,94866.00
2018-08-20T12:19:42.032Z,94870.00
2018-08-20T12:22:13.355Z,94861.00
2018-08-20T12:24:44.462Z,94865.00
2018-08-20T12:27:15.574Z,94858.00
2018-08-20T12:29:46.590Z,94852.00
2018-08-20T12:32:17.447Z,94869.00
2018-08-20T12:34:48.388Z,94858.00
2018-08-20T12:37:19.487Z,94853.00
2018-08-20T12:39:50.652Z,94846.00
2018-08-20T12:42:21.605Z,94846.00
2018-08-20T12:44:52.551Z,94841.00
2018-08-20T12:47:23.656Z,94840.00
2018-08-20T12:49:54.602Z,94834.00
2018-08-20T12:52:25.700Z,94834.00
2018-08-20T12:54:56.863Z,94833.00
2018-08-20T12:57:27.891Z,94829.00
2018-08-20T12:59:59.581Z,94829.00
2018-08-20T13:02:30.645Z,94830.00
2018-08-20T13:05:01.776Z,94832.00
2018-08-20T13:07:32.862Z,94826.00
2018-08-20T13:10:03.901Z,94828.00
2018-08-20T13:12:34.885Z,94825.00
2018-08-20T13:15:06.164Z,94826.00
2018-08-20T13:17:37.114Z,94821.00
2018-08-20T13:20:08.161Z,94831.00
2018-08-20T13:22:39.056Z,94825.00
2018-08-20T13:25:10.411Z,94828.00
2018-08-20T13:27:41.336Z,94822.00
2018-08-20T13:30:12.536Z,94824.00
2018-08-20T13:32:43.552Z,94821.00
2018-08-20T13:35:14.699Z,94817.00
2018-08-20T13:37:46.769Z,94814.00
2018-08-20T13:40:18.433Z,94814.00
2018-08-20T13:42:49.656Z,94816.00
2018-08-20T13:45:20.696Z,94825.00
2018-08-20T13:47:51.828Z,94821.00
2018-08-20T13:50:23.002Z,94824.00
2018-08-20T13:52:53.943Z,94826.00
2018-08-20T13:55:25.124Z,94824.00
2018-08-20T13:57:56.480Z,94819.00
2018-08-20T14:00:28.970Z,94824.00
2018-08-20T14:03:00.659Z,94823.00
2018-08-20T14:05:32.197Z,94813.00
2018-08-20T14:08:04.734Z,94809.00
2018-08-20T14:10:35.821Z,94807.00
2018-08-20T14:13:07.412Z,94810.00
2018-08-20T14:15:38.614Z,94807.00
2018-08-20T14:18:09.628Z,94806.00
2018-08-20T14:21:02.263Z,94803.00
2018-08-20T14:23:33.387Z,94805.00
2018-08-20T14:26:04.413Z,94806.00
2018-08-20T14:28:35.514Z,94803.00
2018-08-20T14:31:06.596Z,94801.00
2018-08-20T14:33:37.788Z,94804.00
2018-08-20T14:36:09.922Z,94797.00
2018-08-20T14:38:41.103Z,94799.00
2018-08-20T14:41:12.006Z,94802.00
2018-08-20T14:43:43.168Z,94804.00
2018-08-20T14:46:19.170Z,94802.00
2018-08-20T14:48:50.968Z,94803.00
2018-08-20T14:51:22.108Z,94802.00
2018-08-20T14:53:53.302Z,94804.00
2018-08-20T14:56:24.262Z,94806.00
2018-08-20T14:58:55.314Z,94810.00
2018-08-20T15:01:26.447Z,94807.00
2018-08-20T15:03:57.466Z,94805.00
2018-08-20T15:06:29.597Z,94805.00
2018-08-20T15:09:01.102Z,94810.00
2018-08-20T15:11:32.374Z,94806.00
2018-08-20T15:14:03.412Z,94811.00
2018-08-20T15:16:34.516Z,94810.00
2018-08-20T15:19:05.709Z,94806.00
2018-08-20T15:21:36.748Z,94807.00
2018-08-20T15:24:07.836Z,94807.00
2018-08-20T15:26:39.019Z,94812.00
2018-08-20T15:29:10.333Z,94809.00
2018-08-20T15:31:41.402Z,94813.00
2018-08-20T15:34:12.635Z,94811.00
2018-08-20T15:36:44.248Z,94807.00
2018-08-20T15:39:15.612Z,94803.00
2018-08-20T15:41:47.031Z,94802.00
2018-08-20T15:44:19.453Z,94798.00
2018-08-20T15:46:51.077Z,94795.00
2018-08-20T15:49:28.355Z,94793.00
2018-08-20T15:51:59.515Z,94785.00
2018-08-20T15:54:30.713Z,94787.00
2018-08-20T15:57:02.715Z,94792.00
2018-08-20T15:59:33.892Z,94788.00
2018-08-20T16:02:05.263Z,94788.00
2018-08-20T16:04:37.440Z,94787.00
2018-08-20T16:07:09.063Z,94785.00
2018-08-20T16:09:40.206Z,94789.00
2018-08-20T16:12:11.304Z,94787.00
2018-08-20T16:14:42.521Z,94790.00
2018-08-20T16:17:13.604Z,94799.00
2018-08-20T16:19:44.783Z,94795.00
2018-08-20T16:22:16.053Z,94799.00
2018-08-20T16:24:47.384Z,94805.00
2018-08-20T16:27:18.776Z,94805.00
2018-08-20T16:29:50.069Z,94808.00
2018-08-20T16:32:28.994Z,94808.00
2018-08-20T16:35:00.213Z,94814.00
2018-08-20T16:37:31.347Z,94809.00
2018-08-20T16:40:02.572Z,94816.00
2018-08-20T16:42:33.800Z,94818.00
2018-08-20T16:45:06.080Z,94815.00
2018-08-20T16:47:40.401Z,94813.00
2018-08-20T16:50:13.904Z,94821.00
2018-08-20T16:52:45.016Z,94822.00
2018-08-20T16:55:16.262Z,94819.00
2018-08-20T16:57:47.555Z,94822.00
2018-08-20T17:00:18.725Z,94818.00
2018-08-20T17:02:50.296Z,94821.00
2018-08-20T17:05:21.438Z,94815.00
2018-08-20T17:07:52.646Z,94812.00
2018-08-20T17:10:23.764Z,94813.00
2018-08-20T17:12:54.718Z,94809.00
2018-08-20T17:15:27.427Z,94814.00
2018-08-20T17:17:58.786Z,94813.00
2018-08-20T17:20:30.001Z,94812.00
2018-08-20T17:23:23.558Z,94815.00
2018-08-20T17:26:05.502Z,94813.00
2018-08-20T17:28:37.086Z,94817.00
2018-08-20T17:31:21.049Z,94820.00
2018-08-20T17:33:52.087Z,94830.00
2018-08-20T17:36:23.258Z,94831.00
2018-08-20T17:38:54.908Z,94832.00
2018-08-20T17:41:26.754Z,94834.00
2018-08-20T17:43:58.174Z,94840.00
2018-08-20T17:46:29.466Z,94838.00
2018-08-20T17:49:00.900Z,94846.00
2018-08-20T17:51:32.803Z,94845.00
2018-08-20T17:54:04.019Z,94843.00
2018-08-20T17:56:35.243Z,94851.00
2018-08-20T17:59:12.229Z,94853.00
2018-08-20T18:01:43.432Z,94857.00
2018-08-20T18:04:14.767Z,94856.00
2018-08-20T18:06:54.070Z,94859.00
2018-08-20T18:09:25.333Z,94858.00
2018-08-20T18:11:56.906Z,94862.00
2018-08-20T18:14:28.147Z,94870.00
2018-08-20T18:16:59.548Z,94869.00
2018-08-20T18:19:30.783Z,94876.00
2018-08-20T18:22:02.304Z,94878.00
2018-08-20T18:24:33.675Z,94882.00
2018-08-20T18:27:04.895Z,94882.00
2018-08-20T18:29:36.191Z,94880.00
2018-08-20T18:32:07.696Z,94886.00
2018-08-20T18:34:39.153Z,94887.00
2018-08-20T18:37:10.647Z,94892.00
2018-08-20T18:39:43.382Z,94886.00
2018-08-20T18:42:17.515Z,94885.00
2018-08-20T18:44:49.836Z,94889.00
2018-08-20T18:47:21.427Z,94898.00
2018-08-20T18:49:57.934Z,94903.00
2018-08-20T18:52:31.697Z,94905.00
2018-08-20T18:55:02.847Z,94905.00
2018-08-20T18:57:35.648Z,94901.00
2018-08-20T19:02:54.688Z,94902.00
2018-08-20T19:05:28.449Z,94905.00
2018-08-20T19:08:01.463Z,94908.00
2018-08-20T19:10:34.266Z,94911.00
2018-08-20T19:13:06.967Z,94911.00
2018-08-20T19:15:47.757Z,94912.00
2018-08-20T19:18:30.656Z,94912.00
2018-08-20T19:21:05.547Z,94914.00
2018-08-20T19:23:39.204Z,94911.00
2018-08-20T19:26:11.527Z,94910.00
2018-08-20T19:28:44.300Z,94910.00
2018-08-20T19:31:16.546Z,94910.00
2018-08-20T19:33:48.970Z,94912.00
2018-08-20T19:36:21.447Z,94907.00
2018-08-20T19:38:54.012Z,94908.00
2018-08-20T19:41:26.970Z,94907.00
2018-08-20T19:43:59.499Z,94908.00
2018-08-20T19:46:36.579Z,94906.00
2018-08-20T19:49:11.503Z,94903.00
2018-08-20T19:51:45.503Z,94902.00
2018-08-20T19:54:18.369Z,94902.00
2018-08-20T19:56:51.144Z,94906.00
2018-08-20T19:59:29.008Z,94908.00
2018-08-20T20:02:01.256Z,94911.00
2018-08-20T20:04:34.558Z,94909.00
2018-08-20T20:07:07.510Z,94909.00
2018-08-20T20:09:40.062Z,94910.00
2018-08-20T20:12:12.472Z,94907.00
2018-08-20T20:14:49.295Z,94903.00
2018-08-20T20:17:22.268Z,94908.00
2018-08-20T20:19:55.639Z,94906.00
2018-08-20T20:22:28.489Z,94907.00
2018-08-20T20:25:02.023Z,94920.00
2018-08-20T20:27:34.949Z,94920.00
2018-08-20T20:30:08.133Z,94925.00
2018-08-20T20:32:40.451Z,94920.00
2018-08-20T20:35:13.311Z,94918.00
2018-08-20T20:37:45.548Z,94917.00
2018-08-20T20:40:17.854Z,94925.00
2018-08-20T20:42:50.333Z,94916.00
2018-08-20T20:45:22.809Z,94925.00
2018-08-20T20:47:55.044Z,94922.00
2018-08-20T20:50:27.835Z,94924.00
2018-08-20T20:53:00.054Z,94922.00
2018-08-20T20:55:32.406Z,94923.00
2018-08-20T20:58:04.471Z,94928.00
2018-08-20T21:00:36.860Z,94932.00
2018-08-20T21:03:11.947Z,94930.00
2018-08-20T21:05:44.660Z,94930.00
2018-08-20T21:08:16.813Z,94925.00
2018-08-20T21:10:50.070Z,94931.00
2018-08-20T21:13:22.640Z,94934.00
2018-08-20T21:15:58.588Z,94940.00
2018-08-20T21:18:33.805Z,94947.00
2018-08-20T21:21:06.349Z,94937.00
2018-08-20T21:23:40.976Z,94938.00
2018-08-20T21:26:13.247Z,94942.00
2018-08-20T21:28:49.349Z,94943.00
2018-08-20T21:31:22.482Z,94942.00
2018-08-20T21:34:00.522Z,94946.00
2018-08-20T21:36:32.855Z,94941.00
2018-08-20T21:39:08.163Z,94946.00
2018-08-20T21:41:40.409Z,94947.00
2018-08-20T21:44:12.775Z,94942.00
2018-08-20T21:46:44.976Z,94945.00
2018-08-20T21:49:17.144Z,94949.00
2018-08-20T21:51:54.109Z,94949.00
2018-08-20T21:54:31.636Z,94947.00
2018-08-20T21:57:04.333Z,94949.00
2018-08-20T21:59:37.941Z,94953.00
2018-08-20T22:02:10.074Z,94959.00
2018-08-20T22:04:42.372Z,94960.00
2018-08-20T22:07:15.839Z,94964.00
2018-08-20T22:09:48.359Z,94961.00
2018-08-20T22:12:21.389Z,94956.00
2018-08-20T22:14:53.633Z,94955.00
2018-08-20T22:17:31.499Z,94951.00
2018-08-20T22:20:04.055Z,94950.00
2018-08-20T22:22:36.060Z,94952.00
2018-08-20T22:25:14.113Z,94944.00
2018-08-20T22:27:51.411Z,94945.00
2018-08-20T22:30:23.606Z,94945.00
2018-08-20T22:32:55.856Z,94942.00
2018-08-20T22:35:28.317Z,94943.00
2018-08-20T22:38:00.738Z,94940.00
2018-08-20T22:40:33.062Z,94939.00
2018-08-20T22:43:05.743Z,94938.00
2018-08-20T22:45:37.966Z,94933.00
2018-08-20T22:48:10.156Z,94933.00
2018-08-20T22:50:42.438Z,94938.00
2018-08-20T22:53:15.962Z,94932.00
2018-08-20T22:56:04.004Z,94931.00
2018-08-20T22:58:37.272Z,94934.00
2018-08-20T23:01:09.575Z,94933.00
2018-08-20T23:03:41.950Z,94927.00
2018-08-20T23:06:14.708Z,94929.00
2018-08-20T23:08:47.195Z,94930.00
2018-08-20T23:11:38.406Z,94933.00
2018-08-20T23:14:13.348Z,94922.00
2018-08-20T23:16:48.772Z,94926.00
2018-08-20T23:19:21.866Z,94930.00
2018-08-20T23:21:58.610Z,94936.00
2018-08-20T23:24:33.340Z,94930.00
2018-08-20T23:27:07.153Z,94931.00
2018-08-20T23:29:40.754Z,94927.00
2018-08-20T23:32:15.374Z,94925.00
2018-08-20T23:34:48.851Z,94938.00
2018-08-20T23:37:22.688Z,94941.00
2018-08-20T23:39:56.640Z,94941.00
2018-08-20T23:42:29.371Z,94937.00
2018-08-20T23:45:03.893Z,94940.00
2018-08-20T23:47:38.353Z,94940.00
2018-08-20T23:50:11.619Z,94944.00
2018-08-20T23:52:45.352Z,94940.00
2018-08-20T23:55:19.603Z,94939.00
2018-08-20T23:57:52.960Z,94940.00
